sensor_id;sensor_type;location;lat;lon;timestamp;pressure;altitude;pressure_sealevel;temperature
79756;BMP280;69239;50.678;12.280;2024-01-11T00:01:58;98866.47;;;-9.10
79756;BMP280;69239;50.678;12.280;2024-01-11T00:04:23;98867.56;;;-9.13
79756;BMP280;69239;50.678;12.280;2024-01-11T00:06:50;98870.25;;;-9.14
79756;BMP280;69239;50.678;12.280;2024-01-11T00:09:15;98865.28;;;-9.16
79756;BMP280;69239;50.678;12.280;2024-01-11T00:11:41;98864.47;;;-9.17
79756;BMP280;69239;50.678;12.280;2024-01-11T00:14:07;98867.03;;;-9.17
79756;BMP280;69239;50.678;12.280;2024-01-11T00:16:32;98860.59;;;-9.21
79756;BMP280;69239;50.678;12.280;2024-01-11T00:18:58;98855.50;;;-9.21
79756;BMP280;69239;50.678;12.280;2024-01-11T00:21:23;98857.09;;;-9.20
79756;BMP280;69239;50.678;12.280;2024-01-11T00:23:49;98849.88;;;-9.24
79756;BMP280;69239;50.678;12.280;2024-01-11T00:26:14;98853.91;;;-9.22
79756;BMP280;69239;50.678;12.280;2024-01-11T00:28:40;98847.03;;;-9.21
79756;BMP280;69239;50.678;12.280;2024-01-11T00:31:05;98854.84;;;-9.23
79756;BMP280;69239;50.678;12.280;2024-01-11T00:33:31;98836.44;;;-9.26
79756;BMP280;69239;50.678;12.280;2024-01-11T00:35:56;98845.03;;;-9.27
79756;BMP280;69239;50.678;12.280;2024-01-11T00:38:22;98846.13;;;-9.30
79756;BMP280;69239;50.678;12.280;2024-01-11T00:40:47;98848.69;;;-9.30
79756;BMP280;69239;50.678;12.280;2024-01-11T00:43:12;98841.03;;;-9.30
79756;BMP280;69239;50.678;12.280;2024-01-11T00:45:38;98839.69;;;-9.34
79756;BMP280;69239;50.678;12.280;2024-01-11T00:48:04;98848.56;;;-9.38
79756;BMP280;69239;50.678;12.280;2024-01-11T00:50:30;98842.13;;;-9.42
79756;BMP280;69239;50.678;12.280;2024-01-11T00:52:56;98835.66;;;-9.46
79756;BMP280;69239;50.678;12.280;2024-01-11T00:55:21;98828.97;;;-9.47
79756;BMP280;69239;50.678;12.280;2024-01-11T00:57:47;98835.97;;;-9.49
79756;BMP280;69239;50.678;12.280;2024-01-11T01:00:12;98827.09;;;-9.55
79756;BMP280;69239;50.678;12.280;2024-01-11T01:02:41;98827.09;;;-9.55
79756;BMP280;69239;50.678;12.280;2024-01-11T01:05:06;98831.41;;;-9.55
79756;BMP280;69239;50.678;12.280;2024-01-11T01:07:32;98822.97;;;-9.56
79756;BMP280;69239;50.678;12.280;2024-01-11T01:09:57;98822.81;;;-9.54
79756;BMP280;69239;50.678;12.280;2024-01-11T01:12:23;98822.81;;;-9.54
79756;BMP280;69239;50.678;12.280;2024-01-11T01:14:50;98822.81;;;-9.54
79756;BMP280;69239;50.678;12.280;2024-01-11T01:17:16;98813.56;;;-9.55
79756;BMP280;69239;50.678;12.280;2024-01-11T01:19:41;98820.69;;;-9.59
79756;BMP280;69239;50.678;12.280;2024-01-11T01:22:06;98826.31;;;-9.55
79756;BMP280;69239;50.678;12.280;2024-01-11T01:24:32;98824.69;;;-9.56
79756;BMP280;69239;50.678;12.280;2024-01-11T01:26:57;98819.88;;;-9.59
79756;BMP280;69239;50.678;12.280;2024-01-11T01:29:22;98816.41;;;-9.68
79756;BMP280;69239;50.678;12.280;2024-01-11T01:31:48;98823.38;;;-9.70
79756;BMP280;69239;50.678;12.280;2024-01-11T01:34:13;98827.91;;;-9.74
79756;BMP280;69239;50.678;12.280;2024-01-11T01:36:40;98818.81;;;-9.76
79756;BMP280;69239;50.678;12.280;2024-01-11T01:39:05;98803.56;;;-9.86
79756;BMP280;69239;50.678;12.280;2024-01-11T01:41:30;98803.56;;;-9.86
79756;BMP280;69239;50.678;12.280;2024-01-11T01:43:56;98803.00;;;-9.90
79756;BMP280;69239;50.678;12.280;2024-01-11T01:46:24;98802.19;;;-9.90
79756;BMP280;69239;50.678;12.280;2024-01-11T01:48:54;98810.63;;;-9.90
79756;BMP280;69239;50.678;12.280;2024-01-11T01:51:21;98814.94;;;-9.90
79756;BMP280;69239;50.678;12.280;2024-01-11T01:53:48;98800.44;;;-9.90
79756;BMP280;69239;50.678;12.280;2024-01-11T01:56:14;98802.19;;;-9.90
79756;BMP280;69239;50.678;12.280;2024-01-11T01:58:40;98798.19;;;-9.93
79756;BMP280;69239;50.678;12.280;2024-01-11T02:01:07;98785.97;;;-9.89
79756;BMP280;69239;50.678;12.280;2024-01-11T02:03:34;98781.81;;;-9.90
79756;BMP280;69239;50.678;12.280;2024-01-11T02:06:03;98785.31;;;-9.91
79756;BMP280;69239;50.678;12.280;2024-01-11T02:08:30;98794.69;;;-9.92
79756;BMP280;69239;50.678;12.280;2024-01-11T02:10:57;98790.56;;;-9.93
79756;BMP280;69239;50.678;12.280;2024-01-11T02:13:24;98792.28;;;-9.93
79756;BMP280;69239;50.678;12.280;2024-01-11T02:15:49;98774.63;;;-9.95
79756;BMP280;69239;50.678;12.280;2024-01-11T02:18:15;98782.09;;;-9.93
79756;BMP280;69239;50.678;12.280;2024-01-11T02:20:40;98771.25;;;-9.95
79756;BMP280;69239;50.678;12.280;2024-01-11T02:23:08;98787.47;;;-9.96
79756;BMP280;69239;50.678;12.280;2024-01-11T02:25:37;98786.78;;;-9.98
79756;BMP280;69239;50.678;12.280;2024-01-11T02:28:03;98781.03;;;-10.00
79756;BMP280;69239;50.678;12.280;2024-01-11T02:30:28;98779.69;;;-10.04
79756;BMP280;69239;50.678;12.280;2024-01-11T02:32:53;98779.28;;;-10.09
79756;BMP280;69239;50.678;12.280;2024-01-11T02:35:19;98785.06;;;-10.07
79756;BMP280;69239;50.678;12.280;2024-01-11T02:37:45;98793.75;;;-10.10
79756;BMP280;69239;50.678;12.280;2024-01-11T02:40:12;98798.03;;;-10.10
79756;BMP280;69239;50.678;12.280;2024-01-11T02:42:38;98805.69;;;-10.10
79756;BMP280;69239;50.678;12.280;2024-01-11T02:45:03;98805.69;;;-10.10
79756;BMP280;69239;50.678;12.280;2024-01-11T02:47:29;98805.03;;;-10.12
79756;BMP280;69239;50.678;12.280;2024-01-11T02:49:55;98799.28;;;-10.15
79756;BMP280;69239;50.678;12.280;2024-01-11T02:52:22;98799.28;;;-10.15
79756;BMP280;69239;50.678;12.280;2024-01-11T02:54:48;98790.94;;;-10.17
79756;BMP280;69239;50.678;12.280;2024-01-11T02:57:14;98801.41;;;-10.20
79756;BMP280;69239;50.678;12.280;2024-01-11T02:59:40;98800.31;;;-10.17
79756;BMP280;69239;50.678;12.280;2024-01-11T03:02:05;98800.59;;;-10.20
79756;BMP280;69239;50.678;12.280;2024-01-11T03:04:31;98806.19;;;-10.17
79756;BMP280;69239;50.678;12.280;2024-01-11T03:06:56;98799.81;;;-10.21
79756;BMP280;69239;50.678;12.280;2024-01-11T03:09:21;98801.41;;;-10.20
79756;BMP280;69239;50.678;12.280;2024-01-11T03:11:47;98799.66;;;-10.19
79756;BMP280;69239;50.678;12.280;2024-01-11T03:14:12;98804.88;;;-10.21
79756;BMP280;69239;50.678;12.280;2024-01-11T03:16:38;98811.59;;;-10.20
79756;BMP280;69239;50.678;12.280;2024-01-11T03:19:05;98815.88;;;-10.20
79756;BMP280;69239;50.678;12.280;2024-01-11T03:21:30;98831.94;;;-10.20
79756;BMP280;69239;50.678;12.280;2024-01-11T03:23:56;98826.84;;;-10.20
79756;BMP280;69239;50.678;12.280;2024-01-11T03:26:22;98827.81;;;-10.21
79756;BMP280;69239;50.678;12.280;2024-01-11T03:28:47;98824.47;;;-10.21
79756;BMP280;69239;50.678;12.280;2024-01-11T03:31:13;98816.25;;;-10.25
79756;BMP280;69239;50.678;12.280;2024-01-11T03:33:39;98805.41;;;-10.27
79756;BMP280;69239;50.678;12.280;2024-01-11T03:36:08;98817.72;;;-10.32
79756;BMP280;69239;50.678;12.280;2024-01-11T03:38:34;98826.28;;;-10.33
79756;BMP280;69239;50.678;12.280;2024-01-11T03:40:59;98837.28;;;-10.32
79756;BMP280;69239;50.678;12.280;2024-01-11T03:43:24;98844.78;;;-10.31
79756;BMP280;69239;50.678;12.280;2024-01-11T03:45:50;98849.88;;;-10.31
79756;BMP280;69239;50.678;12.280;2024-01-11T03:48:15;98843.88;;;-10.30
79756;BMP280;69239;50.678;12.280;2024-01-11T03:50:40;98839.69;;;-10.31
79756;BMP280;69239;50.678;12.280;2024-01-11T03:53:06;98827.88;;;-10.32
79756;BMP280;69239;50.678;12.280;2024-01-11T03:55:31;98833.91;;;-10.33
79756;BMP280;69239;50.678;12.280;2024-01-11T03:57:56;98834.88;;;-10.34
79756;BMP280;69239;50.678;12.280;2024-01-11T04:00:22;98843.31;;;-10.33
79756;BMP280;69239;50.678;12.280;2024-01-11T04:02:47;98836.75;;;-10.36
79756;BMP280;69239;50.678;12.280;2024-01-11T04:05:12;98833.25;;;-10.35
79756;BMP280;69239;50.678;12.280;2024-01-11T04:07:38;98831.78;;;-10.38
79756;BMP280;69239;50.678;12.280;2024-01-11T04:10:03;98846.66;;;-10.33
79756;BMP280;69239;50.678;12.280;2024-01-11T04:12:29;98843.16;;;-10.32
79756;BMP280;69239;50.678;12.280;2024-01-11T04:14:54;98825.63;;;-10.35
79756;BMP280;69239;50.678;12.280;2024-01-11T04:17:20;98805.91;;;-10.33
79756;BMP280;69239;50.678;12.280;2024-01-11T04:19:45;98792.41;;;-10.43
79756;BMP280;69239;50.678;12.280;2024-01-11T04:22:10;98813.16;;;-10.38
79756;BMP280;69239;50.678;12.280;2024-01-11T04:24:36;98827.38;;;-10.35
79756;BMP280;69239;50.678;12.280;2024-01-11T04:27:01;98844.09;;;-10.33
79756;BMP280;69239;50.678;12.280;2024-01-11T04:29:27;98830.44;;;-10.32
79756;BMP280;69239;50.678;12.280;2024-01-11T04:31:52;98822.56;;;-10.29
79756;BMP280;69239;50.678;12.280;2024-01-11T04:34:17;98809.97;;;-10.30
79756;BMP280;69239;50.678;12.280;2024-01-11T04:36:43;98805.91;;;-10.33
79756;BMP280;69239;50.678;12.280;2024-01-11T04:39:08;98806.88;;;-10.34
79756;BMP280;69239;50.678;12.280;2024-01-11T04:41:36;98805.78;;;-10.41
79756;BMP280;69239;50.678;12.280;2024-01-11T04:44:02;98821.78;;;-10.29
79756;BMP280;69239;50.678;12.280;2024-01-11T04:46:27;98820.69;;;-10.27
79756;BMP280;69239;50.678;12.280;2024-01-11T04:48:53;98823.88;;;-10.25
79756;BMP280;69239;50.678;12.280;2024-01-11T04:51:19;98824.19;;;-10.28
79756;BMP280;69239;50.678;12.280;2024-01-11T04:53:45;98827.38;;;-10.26
79756;BMP280;69239;50.678;12.280;2024-01-11T04:56:13;98828.31;;;-10.27
79756;BMP280;69239;50.678;12.280;2024-01-11T04:58:40;98822.56;;;-10.29
79756;BMP280;69239;50.678;12.280;2024-01-11T05:01:06;98831.53;;;-10.25
79756;BMP280;69239;50.678;12.280;2024-01-11T05:03:31;98809.56;;;-10.26
79756;BMP280;69239;50.678;12.280;2024-01-11T05:05:58;98805.41;;;-10.27
79756;BMP280;69239;50.678;12.280;2024-01-11T05:08:23;98812.38;;;-10.29
79756;BMP280;69239;50.678;12.280;2024-01-11T05:10:49;98808.34;;;-10.31
79756;BMP280;69239;50.678;12.280;2024-01-11T05:13:15;98799.78;;;-10.30
79756;BMP280;69239;50.678;12.280;2024-01-11T05:15:40;98809.84;;;-10.29
79756;BMP280;69239;50.678;12.280;2024-01-11T05:18:06;98816.53;;;-10.28
79756;BMP280;69239;50.678;12.280;2024-01-11T05:20:31;98807.97;;;-10.27
79756;BMP280;69239;50.678;12.280;2024-01-11T05:22:56;98828.75;;;-10.22
79756;BMP280;69239;50.678;12.280;2024-01-11T05:25:22;98831.94;;;-10.20
79756;BMP280;69239;50.678;12.280;2024-01-11T05:27:47;98830.06;;;-10.18
79756;BMP280;69239;50.678;12.280;2024-01-11T05:30:13;98842.56;;;-10.15
79756;BMP280;69239;50.678;12.280;2024-01-11T05:32:38;98837.56;;;-10.16
79756;BMP280;69239;50.678;12.280;2024-01-11T05:35:04;98861.44;;;-10.07
79756;BMP280;69239;50.678;12.280;2024-01-11T05:37:29;98862.50;;;-10.10
79756;BMP280;69239;50.678;12.280;2024-01-11T05:39:54;98860.75;;;-10.09
79756;BMP280;69239;50.678;12.280;2024-01-11T05:42:22;98869.75;;;-10.15
79756;BMP280;69239;50.678;12.280;2024-01-11T05:44:48;98869.47;;;-10.22
79756;BMP280;69239;50.678;12.280;2024-01-11T05:47:13;98879.09;;;-10.25
79756;BMP280;69239;50.678;12.280;2024-01-11T05:49:38;98887.66;;;-10.26
79756;BMP280;69239;50.678;12.280;2024-01-11T05:52:04;98889.06;;;-10.12
79756;BMP280;69239;50.678;12.280;2024-01-11T05:54:29;98884.50;;;-9.90
79756;BMP280;69239;50.678;12.280;2024-01-11T05:56:55;98886.69;;;-9.85
79756;BMP280;69239;50.678;12.280;2024-01-11T05:59:24;98880.50;;;-9.92
79756;BMP280;69239;50.678;12.280;2024-01-11T06:01:51;98877.53;;;-9.97
79756;BMP280;69239;50.678;12.280;2024-01-11T06:04:27;98857.94;;;-10.06
79756;BMP280;69239;50.678;12.280;2024-01-11T06:06:52;98868.13;;;-10.06
79756;BMP280;69239;50.678;12.280;2024-01-11T06:09:18;98863.88;;;-10.06
79756;BMP280;69239;50.678;12.280;2024-01-11T06:11:43;98868.13;;;-10.06
79756;BMP280;69239;50.678;12.280;2024-01-11T06:14:09;98857.56;;;-10.02
79756;BMP280;69239;50.678;12.280;2024-01-11T06:16:34;98847.50;;;-10.03
79756;BMP280;69239;50.678;12.280;2024-01-11T06:19:00;98850.44;;;-9.98
79756;BMP280;69239;50.678;12.280;2024-01-11T06:21:25;98834.63;;;-10.02
79756;BMP280;69239;50.678;12.280;2024-01-11T06:23:51;98836.78;;;-9.97
79756;BMP280;69239;50.678;12.280;2024-01-11T06:26:16;98841.34;;;-9.72
79756;BMP280;69239;50.678;12.280;2024-01-11T06:28:42;98837.03;;;-9.42
79756;BMP280;69239;50.678;12.280;2024-01-11T06:31:09;98842.34;;;-9.26
79756;BMP280;69239;50.678;12.280;2024-01-11T06:33:34;98839.09;;;-9.08
79756;BMP280;69239;50.678;12.280;2024-01-11T06:36:04;98839.72;;;-9.06
79756;BMP280;69239;50.678;12.280;2024-01-11T06:38:30;98826.22;;;-9.17
79756;BMP280;69239;50.678;12.280;2024-01-11T06:40:56;98847.03;;;-9.21
79756;BMP280;69239;50.678;12.280;2024-01-11T06:43:22;98831.78;;;-9.31
79756;BMP280;69239;50.678;12.280;2024-01-11T06:45:47;98858.06;;;-9.30
79756;BMP280;69239;50.678;12.280;2024-01-11T06:48:14;98860.09;;;-9.34
79756;BMP280;69239;50.678;12.280;2024-01-11T06:50:39;98866.53;;;-9.40
79756;BMP280;69239;50.678;12.280;2024-01-11T06:53:04;98881.03;;;-9.50
79756;BMP280;69239;50.678;12.280;2024-01-11T06:55:30;98893.66;;;-9.58
79756;BMP280;69239;50.678;12.280;2024-01-11T06:57:55;98899.44;;;-9.66
79756;BMP280;69239;50.678;12.280;2024-01-11T07:00:21;98897.53;;;-9.73
79756;BMP280;69239;50.678;12.280;2024-01-11T07:02:47;98896.56;;;-9.82
79756;BMP280;69239;50.678;12.280;2024-01-11T07:05:13;98892.03;;;-9.88
79756;BMP280;69239;50.678;12.280;2024-01-11T07:07:38;98880.50;;;-9.92
79756;BMP280;69239;50.678;12.280;2024-01-11T07:10:04;98874.31;;;-9.99
79756;BMP280;69239;50.678;12.280;2024-01-11T07:12:30;98882.91;;;-10.00
79756;BMP280;69239;50.678;12.280;2024-01-11T07:14:56;98883.72;;;-10.00
79756;BMP280;69239;50.678;12.280;2024-01-11T07:17:21;98907.44;;;-9.99
79756;BMP280;69239;50.678;12.280;2024-01-11T07:19:47;98909.81;;;-9.98
79756;BMP280;69239;50.678;12.280;2024-01-11T07:22:13;98894.69;;;-9.90
79756;BMP280;69239;50.678;12.280;2024-01-11T07:24:38;98899.91;;;-9.81
79756;BMP280;69239;50.678;12.280;2024-01-11T07:27:05;98904.94;;;-9.70
79756;BMP280;69239;50.678;12.280;2024-01-11T07:29:31;98907.03;;;-9.46
79756;BMP280;69239;50.678;12.280;2024-01-11T07:31:56;98894.94;;;-9.25
79756;BMP280;69239;50.678;12.280;2024-01-11T07:34:22;98898.94;;;-8.93
79756;BMP280;69239;50.678;12.280;2024-01-11T07:36:47;98881.34;;;-8.69
79756;BMP280;69239;50.678;12.280;2024-01-11T07:39:12;98876.63;;;-8.36
79756;BMP280;69239;50.678;12.280;2024-01-11T07:41:38;98863.03;;;-8.09
79756;BMP280;69239;50.678;12.280;2024-01-11T07:44:03;98857.56;;;-7.96
79756;BMP280;69239;50.678;12.280;2024-01-11T07:46:28;98872.47;;;-7.83
79756;BMP280;69239;50.678;12.280;2024-01-11T07:48:54;98863.72;;;-7.37
79756;BMP280;69239;50.678;12.280;2024-01-11T07:51:19;98857.50;;;-6.74
79756;BMP280;69239;50.678;12.280;2024-01-11T07:53:45;98858.13;;;-5.97
79756;BMP280;69239;50.678;12.280;2024-01-11T07:56:11;98846.41;;;-5.03
79756;BMP280;69239;50.678;12.280;2024-01-11T07:58:36;98847.25;;;-4.03
79756;BMP280;69239;50.678;12.280;2024-01-11T08:01:03;98840.06;;;-3.11
79756;BMP280;69239;50.678;12.280;2024-01-11T08:03:28;98814.38;;;-2.47
79756;BMP280;69239;50.678;12.280;2024-01-11T08:05:55;98822.63;;;-1.80
79756;BMP280;69239;50.678;12.280;2024-01-11T08:08:20;98834.53;;;-1.03
79756;BMP280;69239;50.678;12.280;2024-01-11T08:10:46;98822.06;;;-0.60
79756;BMP280;69239;50.678;12.280;2024-01-11T08:13:12;98824.69;;;-0.34
79756;BMP280;69239;50.678;12.280;2024-01-11T08:15:38;98805.94;;;0.11
79756;BMP280;69239;50.678;12.280;2024-01-11T08:18:04;98814.06;;;0.27
79756;BMP280;69239;50.678;12.280;2024-01-11T08:20:30;98818.66;;;0.12
79756;BMP280;69239;50.678;12.280;2024-01-11T08:22:55;98833.44;;;-0.02
79756;BMP280;69239;50.678;12.280;2024-01-11T08:25:21;98840.00;;;0.01
79756;BMP280;69239;50.678;12.280;2024-01-11T08:27:48;98833.84;;;-0.18
79756;BMP280;69239;50.678;12.280;2024-01-11T08:30:13;98819.28;;;-0.52
79756;BMP280;69239;50.678;12.280;2024-01-11T08:32:39;98820.25;;;-0.66
79756;BMP280;69239;50.678;12.280;2024-01-11T08:35:07;98803.97;;;-0.07
79756;BMP280;69239;50.678;12.280;2024-01-11T08:37:36;98805.97;;;-0.09
79756;BMP280;69239;50.678;12.280;2024-01-11T08:40:01;98802.97;;;-0.39
79756;BMP280;69239;50.678;12.280;2024-01-11T08:42:30;98809.34;;;-0.68
79756;BMP280;69239;50.678;12.280;2024-01-11T08:44:55;98817.88;;;-0.74
79756;BMP280;69239;50.678;12.280;2024-01-11T08:47:20;98839.38;;;-0.54
79756;BMP280;69239;50.678;12.280;2024-01-11T08:49:46;98852.31;;;-0.47
79756;BMP280;69239;50.678;12.280;2024-01-11T08:52:11;98866.88;;;-0.40
79756;BMP280;69239;50.678;12.280;2024-01-11T08:54:36;98858.69;;;-0.37
79756;BMP280;69239;50.678;12.280;2024-01-11T08:57:02;98841.81;;;-0.19
79756;BMP280;69239;50.678;12.280;2024-01-11T08:59:28;98823.19;;;0.37
79756;BMP280;69239;50.678;12.280;2024-01-11T09:01:53;98821.50;;;1.07
79756;BMP280;69239;50.678;12.280;2024-01-11T09:04:18;98826.63;;;1.70
79756;BMP280;69239;50.678;12.280;2024-01-11T09:06:44;98831.00;;;2.13
79756;BMP280;69239;50.678;12.280;2024-01-11T09:09:11;98827.81;;;2.47
79756;BMP280;69239;50.678;12.280;2024-01-11T09:11:39;98831.31;;;2.53
79756;BMP280;69239;50.678;12.280;2024-01-11T09:14:08;98828.53;;;2.55
79756;BMP280;69239;50.678;12.280;2024-01-11T09:16:36;98826.75;;;2.67
79756;BMP280;69239;50.678;12.280;2024-01-11T09:19:01;98827.09;;;3.00
79756;BMP280;69239;50.678;12.280;2024-01-11T09:21:27;98829.06;;;3.17
79756;BMP280;69239;50.678;12.280;2024-01-11T09:23:52;98840.31;;;3.41
79756;BMP280;69239;50.678;12.280;2024-01-11T09:26:17;98847.94;;;3.89
79756;BMP280;69239;50.678;12.280;2024-01-11T09:28:43;98863.13;;;4.44
79756;BMP280;69239;50.678;12.280;2024-01-11T09:31:08;98851.53;;;4.80
79756;BMP280;69239;50.678;12.280;2024-01-11T09:33:33;98844.16;;;5.39
79756;BMP280;69239;50.678;12.280;2024-01-11T09:35:59;98834.59;;;5.83
79756;BMP280;69239;50.678;12.280;2024-01-11T09:38:24;98835.38;;;6.06
79756;BMP280;69239;50.678;12.280;2024-01-11T09:41:06;98843.50;;;6.53
79756;BMP280;69239;50.678;12.280;2024-01-11T09:43:35;98849.72;;;6.74
79756;BMP280;69239;50.678;12.280;2024-01-11T09:46:03;98853.44;;;6.78
79756;BMP280;69239;50.678;12.280;2024-01-11T09:48:32;98861.97;;;6.68
79756;BMP280;69239;50.678;12.280;2024-01-11T09:50:59;98864.38;;;6.70
79756;BMP280;69239;50.678;12.280;2024-01-11T09:53:25;98864.78;;;6.83
79756;BMP280;69239;50.678;12.280;2024-01-11T09:55:52;98854.53;;;6.82
79756;BMP280;69239;50.678;12.280;2024-01-11T09:58:20;98861.84;;;6.80
79756;BMP280;69239;50.678;12.280;2024-01-11T10:00:46;98853.13;;;7.01
79756;BMP280;69239;50.678;12.280;2024-01-11T10:03:14;98845.66;;;7.57
79756;BMP280;69239;50.678;12.280;2024-01-11T10:05:40;98848.16;;;9.02
79756;BMP280;69239;50.678;12.280;2024-01-11T10:08:07;98836.31;;;10.44
79756;BMP280;69239;50.678;12.280;2024-01-11T10:10:33;98840.31;;;11.52
79756;BMP280;69239;50.678;12.280;2024-01-11T10:12:58;98861.69;;;11.75
79756;BMP280;69239;50.678;12.280;2024-01-11T10:15:24;98855.16;;;12.47
79756;BMP280;69239;50.678;12.280;2024-01-11T10:17:49;98830.72;;;13.29
79756;BMP280;69239;50.678;12.280;2024-01-11T10:20:15;98818.63;;;13.64
79756;BMP280;69239;50.678;12.280;2024-01-11T10:22:42;98836.22;;;13.96
79756;BMP280;69239;50.678;12.280;2024-01-11T10:25:15;98832.97;;;14.66
79756;BMP280;69239;50.678;12.280;2024-01-11T10:27:42;98836.13;;;15.16
79756;BMP280;69239;50.678;12.280;2024-01-11T10:30:09;98833.50;;;15.25
79756;BMP280;69239;50.678;12.280;2024-01-11T10:32:35;98822.75;;;14.91
79756;BMP280;69239;50.678;12.280;2024-01-11T10:35:03;98832.63;;;14.14
79756;BMP280;69239;50.678;12.280;2024-01-11T10:37:31;98834.72;;;13.81
79756;BMP280;69239;50.678;12.280;2024-01-11T10:39:58;98834.19;;;13.93
79756;BMP280;69239;50.678;12.280;2024-01-11T10:42:28;98835.50;;;14.27
79756;BMP280;69239;50.678;12.280;2024-01-11T10:44:59;98824.97;;;14.97
79756;BMP280;69239;50.678;12.280;2024-01-11T10:47:30;98825.44;;;15.65
79756;BMP280;69239;50.678;12.280;2024-01-11T10:49:57;98832.75;;;16.37
79756;BMP280;69239;50.678;12.280;2024-01-11T10:52:28;98822.03;;;17.01
79756;BMP280;69239;50.678;12.280;2024-01-11T10:55:00;98823.41;;;17.36
79756;BMP280;69239;50.678;12.280;2024-01-11T10:57:27;98824.38;;;17.52
79756;BMP280;69239;50.678;12.280;2024-01-11T10:59:54;98813.47;;;17.99
79756;BMP280;69239;50.678;12.280;2024-01-11T11:02:21;98808.06;;;18.65
79756;BMP280;69239;50.678;12.280;2024-01-11T11:04:50;98797.84;;;19.19
79756;BMP280;69239;50.678;12.280;2024-01-11T11:07:16;98795.66;;;19.49
79756;BMP280;69239;50.678;12.280;2024-01-11T11:09:44;98789.84;;;19.75
79756;BMP280;69239;50.678;12.280;2024-01-11T11:12:11;98787.00;;;19.96
79756;BMP280;69239;50.678;12.280;2024-01-11T11:14:38;98785.50;;;20.45
79756;BMP280;69239;50.678;12.280;2024-01-11T11:17:03;98774.00;;;20.76
79756;BMP280;69239;50.678;12.280;2024-01-11T11:19:29;98782.59;;;19.32
79756;BMP280;69239;50.678;12.280;2024-01-11T11:21:55;98778.19;;;17.48
79756;BMP280;69239;50.678;12.280;2024-01-11T11:24:20;98788.91;;;15.96
79756;BMP280;69239;50.678;12.280;2024-01-11T11:26:46;98791.78;;;14.69
79756;BMP280;69239;50.678;12.280;2024-01-11T11:29:12;98797.47;;;13.50
79756;BMP280;69239;50.678;12.280;2024-01-11T11:31:41;98791.72;;;12.34
79756;BMP280;69239;50.678;12.280;2024-01-11T11:34:07;98797.06;;;11.06
79756;BMP280;69239;50.678;12.280;2024-01-11T11:36:36;98792.06;;;10.07
79756;BMP280;69239;50.678;12.280;2024-01-11T11:39:02;98784.78;;;9.24
79756;BMP280;69239;50.678;12.280;2024-01-11T11:41:30;98790.13;;;8.53
79756;BMP280;69239;50.678;12.280;2024-01-11T11:44:00;98798.41;;;7.99
79756;BMP280;69239;50.678;12.280;2024-01-11T11:46:26;98784.00;;;7.44
79756;BMP280;69239;50.678;12.280;2024-01-11T11:48:52;98802.00;;;6.94
79756;BMP280;69239;50.678;12.280;2024-01-11T11:51:21;98791.75;;;6.33
79756;BMP280;69239;50.678;12.280;2024-01-11T11:53:48;98795.28;;;5.95
79756;BMP280;69239;50.678;12.280;2024-01-11T11:56:14;98781.44;;;5.56
79756;BMP280;69239;50.678;12.280;2024-01-11T11:58:43;98769.25;;;5.06
79756;BMP280;69239;50.678;12.280;2024-01-11T12:01:09;98770.06;;;4.61
79756;BMP280;69239;50.678;12.280;2024-01-11T12:03:36;98768.53;;;4.20
79756;BMP280;69239;50.678;12.280;2024-01-11T12:06:06;98758.88;;;3.80
79756;BMP280;69239;50.678;12.280;2024-01-11T12:08:32;98760.19;;;3.54
79756;BMP280;69239;50.678;12.280;2024-01-11T12:10:58;98752.03;;;3.27
79756;BMP280;69239;50.678;12.280;2024-01-11T12:13:24;98763.69;;;3.13
79756;BMP280;69239;50.678;12.280;2024-01-11T12:15:50;98762.28;;;2.99
79756;BMP280;69239;50.678;12.280;2024-01-11T12:18:16;98748.69;;;2.85
79756;BMP280;69239;50.678;12.280;2024-01-11T12:20:41;98760.88;;;2.73
79756;BMP280;69239;50.678;12.280;2024-01-11T12:23:07;98764.97;;;2.50
79756;BMP280;69239;50.678;12.280;2024-01-11T12:25:33;98768.31;;;2.39
79756;BMP280;69239;50.678;12.280;2024-01-11T12:27:58;98757.19;;;2.32
79756;BMP280;69239;50.678;12.280;2024-01-11T12:30:25;98753.94;;;2.37
79756;BMP280;69239;50.678;12.280;2024-01-11T12:32:51;98754.31;;;2.40
79756;BMP280;69239;50.678;12.280;2024-01-11T12:35:17;98758.34;;;2.36
79756;BMP280;69239;50.678;12.280;2024-01-11T12:37:59;98751.31;;;2.25
79756;BMP280;69239;50.678;12.280;2024-01-11T12:40:26;98756.69;;;2.12
79756;BMP280;69239;50.678;12.280;2024-01-11T12:42:56;98750.59;;;2.00
79756;BMP280;69239;50.678;12.280;2024-01-11T12:45:22;98765.47;;;1.92
79756;BMP280;69239;50.678;12.280;2024-01-11T12:47:48;98742.25;;;1.79
79756;BMP280;69239;50.678;12.280;2024-01-11T12:50:13;98740.22;;;1.63
79756;BMP280;69239;50.678;12.280;2024-01-11T12:52:39;98742.50;;;1.53
79756;BMP280;69239;50.678;12.280;2024-01-11T12:55:07;98725.03;;;1.42
79756;BMP280;69239;50.678;12.280;2024-01-11T12:57:33;98722.50;;;1.35
79756;BMP280;69239;50.678;12.280;2024-01-11T13:00:14;98727.25;;;1.38
79756;BMP280;69239;50.678;12.280;2024-01-11T13:02:41;98721.69;;;1.78
79756;BMP280;69239;50.678;12.280;2024-01-11T13:05:09;98720.56;;;2.52
79756;BMP280;69239;50.678;12.280;2024-01-11T13:07:36;98708.94;;;3.95
79756;BMP280;69239;50.678;12.280;2024-01-11T13:10:02;98706.31;;;6.12
79756;BMP280;69239;50.678;12.280;2024-01-11T13:12:29;98689.59;;;8.17
79756;BMP280;69239;50.678;12.280;2024-01-11T13:14:54;98687.69;;;9.92
79756;BMP280;69239;50.678;12.280;2024-01-11T13:17:21;98674.25;;;11.05
79756;BMP280;69239;50.678;12.280;2024-01-11T13:19:46;98673.16;;;12.18
79756;BMP280;69239;50.678;12.280;2024-01-11T13:22:11;98671.78;;;13.17
79756;BMP280;69239;50.678;12.280;2024-01-11T13:24:37;98675.16;;;13.98
79756;BMP280;69239;50.678;12.280;2024-01-11T13:27:02;98683.66;;;14.48
79756;BMP280;69239;50.678;12.280;2024-01-11T13:29:28;98699.50;;;13.56
79756;BMP280;69239;50.678;12.280;2024-01-11T13:31:53;98698.06;;;11.94
79756;BMP280;69239;50.678;12.280;2024-01-11T13:34:18;98702.31;;;10.43
79756;BMP280;69239;50.678;12.280;2024-01-11T13:36:44;98710.88;;;9.36
79756;BMP280;69239;50.678;12.280;2024-01-11T13:39:10;98710.31;;;8.44
79756;BMP280;69239;50.678;12.280;2024-01-11T13:41:36;98695.78;;;7.70
79756;BMP280;69239;50.678;12.280;2024-01-11T13:44:01;98681.41;;;7.10
79756;BMP280;69239;50.678;12.280;2024-01-11T13:46:26;98682.66;;;6.55
79756;BMP280;69239;50.678;12.280;2024-01-11T13:48:52;98693.78;;;6.14
79756;BMP280;69239;50.678;12.280;2024-01-11T13:51:18;98698.41;;;5.80